sensor_id;sensor_type;location;lat;lon;timestamp;temperature;humidity
60495;DHT22;46342;49.046;11.920;2023-04-06T00:01:12;2.80;41.90
60495;DHT22;46342;49.046;11.920;2023-04-06T00:03:38;2.80;41.90
60495;DHT22;46342;49.046;11.920;2023-04-06T00:06:04;2.80;42.00
60495;DHT22;46342;49.046;11.920;2023-04-06T00:08:30;2.70;42.00
60495;DHT22;46342;49.046;11.920;2023-04-06T00:10:55;2.70;42.00
60495;DHT22;46342;49.046;11.920;2023-04-06T00:13:21;2.60;42.10
60495;DHT22;46342;49.046;11.920;2023-04-06T00:15:47;2.60;42.20
60495;DHT22;46342;49.046;11.920;2023-04-06T00:18:12;2.60;42.30
60495;DHT22;46342;49.046;11.920;2023-04-06T00:20:38;2.60;42.30
60495;DHT22;46342;49.046;11.920;2023-04-06T00:23:04;2.50;42.30
60495;DHT22;46342;49.046;11.920;2023-04-06T00:25:29;2.50;42.50
60495;DHT22;46342;49.046;11.920;2023-04-06T00:27:55;2.50;42.40
60495;DHT22;46342;49.046;11.920;2023-04-06T00:30:21;2.50;42.50
60495;DHT22;46342;49.046;11.920;2023-04-06T00:32:46;2.50;42.60
60495;DHT22;46342;49.046;11.920;2023-04-06T00:35:12;2.50;42.70
60495;DHT22;46342;49.046;11.920;2023-04-06T00:37:37;2.40;42.60
60495;DHT22;46342;49.046;11.920;2023-04-06T00:40:03;2.40;42.60
60495;DHT22;46342;49.046;11.920;2023-04-06T00:42:29;2.40;42.60
60495;DHT22;46342;49.046;11.920;2023-04-06T00:44:58;2.40;42.70
60495;DHT22;46342;49.046;11.920;2023-04-06T00:47:24;2.40;42.90
60495;DHT22;46342;49.046;11.920;2023-04-06T00:49:51;2.40;42.80
60495;DHT22;46342;49.046;11.920;2023-04-06T00:52:17;2.30;42.80
60495;DHT22;46342;49.046;11.920;2023-04-06T00:54:43;2.30;42.90
60495;DHT22;46342;49.046;11.920;2023-04-06T00:57:13;2.30;42.90
60495;DHT22;46342;49.046;11.920;2023-04-06T00:59:39;2.30;43.00
60495;DHT22;46342;49.046;11.920;2023-04-06T01:02:05;2.30;43.00
60495;DHT22;46342;49.046;11.920;2023-04-06T01:04:32;2.30;43.00
60495;DHT22;46342;49.046;11.920;2023-04-06T01:06:57;2.30;43.10
60495;DHT22;46342;49.046;11.920;2023-04-06T01:09:23;2.30;43.20
60495;DHT22;46342;49.046;11.920;2023-04-06T01:11:48;2.30;43.30
60495;DHT22;46342;49.046;11.920;2023-04-06T01:14:14;2.30;43.30
60495;DHT22;46342;49.046;11.920;2023-04-06T01:16:40;2.30;43.30
60495;DHT22;46342;49.046;11.920;2023-04-06T01:19:10;2.30;43.30
60495;DHT22;46342;49.046;11.920;2023-04-06T01:21:37;2.20;43.50
60495;DHT22;46342;49.046;11.920;2023-04-06T01:24:03;2.20;43.40
60495;DHT22;46342;49.046;11.920;2023-04-06T01:26:29;2.20;43.50
60495;DHT22;46342;49.046;11.920;2023-04-06T01:28:55;2.20;44.10
60495;DHT22;46342;49.046;11.920;2023-04-06T01:31:22;2.20;43.40
60495;DHT22;46342;49.046;11.920;2023-04-06T01:33:47;2.20;43.50
60495;DHT22;46342;49.046;11.920;2023-04-06T01:36:13;2.20;43.40
60495;DHT22;46342;49.046;11.920;2023-04-06T01:38:39;2.20;43.50
60495;DHT22;46342;49.046;11.920;2023-04-06T01:41:07;2.20;43.50
60495;DHT22;46342;49.046;11.920;2023-04-06T01:43:33;2.10;43.40
60495;DHT22;46342;49.046;11.920;2023-04-06T01:45:59;2.10;43.50
60495;DHT22;46342;49.046;11.920;2023-04-06T01:48:25;2.10;43.50
60495;DHT22;46342;49.046;11.920;2023-04-06T01:50:51;2.00;43.50
60495;DHT22;46342;49.046;11.920;2023-04-06T01:53:16;2.00;43.60
60495;DHT22;46342;49.046;11.920;2023-04-06T01:55:42;2.00;43.60
60495;DHT22;46342;49.046;11.920;2023-04-06T01:58:07;2.00;43.60
60495;DHT22;46342;49.046;11.920;2023-04-06T02:00:33;2.00;43.70
60495;DHT22;46342;49.046;11.920;2023-04-06T02:02:58;2.00;43.80
60495;DHT22;46342;49.046;11.920;2023-04-06T02:05:25;1.90;43.80
60495;DHT22;46342;49.046;11.920;2023-04-06T02:07:51;1.90;44.50
60495;DHT22;46342;49.046;11.920;2023-04-06T02:10:17;1.90;43.90
60495;DHT22;46342;49.046;11.920;2023-04-06T02:12:42;1.90;43.90
60495;DHT22;46342;49.046;11.920;2023-04-06T02:15:08;1.90;44.00
60495;DHT22;46342;49.046;11.920;2023-04-06T02:17:34;1.90;44.00
60495;DHT22;46342;49.046;11.920;2023-04-06T02:20:00;1.90;44.10
60495;DHT22;46342;49.046;11.920;2023-04-06T02:22:25;1.90;44.20
60495;DHT22;46342;49.046;11.920;2023-04-06T02:24:51;1.90;44.20
60495;DHT22;46342;49.046;11.920;2023-04-06T02:27:16;1.90;44.30
60495;DHT22;46342;49.046;11.920;2023-04-06T02:29:42;1.90;44.90
60495;DHT22;46342;49.046;11.920;2023-04-06T02:32:07;1.90;44.30
60495;DHT22;46342;49.046;11.920;2023-04-06T02:34:33;1.90;44.30
60495;DHT22;46342;49.046;11.920;2023-04-06T02:36:58;1.90;44.30
60495;DHT22;46342;49.046;11.920;2023-04-06T02:39:24;1.90;44.20
60495;DHT22;46342;49.046;11.920;2023-04-06T02:41:49;1.90;44.80
60495;DHT22;46342;49.046;11.920;2023-04-06T02:44:15;1.80;44.20
60495;DHT22;46342;49.046;11.920;2023-04-06T02:46:41;1.80;44.20
60495;DHT22;46342;49.046;11.920;2023-04-06T02:49:06;1.80;44.80
60495;DHT22;46342;49.046;11.920;2023-04-06T02:51:32;1.80;44.30
60495;DHT22;46342;49.046;11.920;2023-04-06T02:53:58;1.80;44.20
60495;DHT22;46342;49.046;11.920;2023-04-06T02:56:24;1.80;44.40
60495;DHT22;46342;49.046;11.920;2023-04-06T02:58:50;1.80;44.40
60495;DHT22;46342;49.046;11.920;2023-04-06T03:01:15;1.80;44.40
60495;DHT22;46342;49.046;11.920;2023-04-06T03:03:41;1.80;44.40
60495;DHT22;46342;49.046;11.920;2023-04-06T03:06:07;1.70;44.40
60495;DHT22;46342;49.046;11.920;2023-04-06T03:08:32;1.70;44.40
60495;DHT22;46342;49.046;11.920;2023-04-06T03:10:58;1.70;44.40
60495;DHT22;46342;49.046;11.920;2023-04-06T03:13:23;1.70;44.40
60495;DHT22;46342;49.046;11.920;2023-04-06T03:15:49;1.70;44.50
60495;DHT22;46342;49.046;11.920;2023-04-06T03:18:15;1.60;44.40
60495;DHT22;46342;49.046;11.920;2023-04-06T03:20:41;1.60;44.50
60495;DHT22;46342;49.046;11.920;2023-04-06T03:23:06;1.60;44.50
60495;DHT22;46342;49.046;11.920;2023-04-06T03:25:32;1.60;44.50
60495;DHT22;46342;49.046;11.920;2023-04-06T03:27:57;1.50;44.50
60495;DHT22;46342;49.046;11.920;2023-04-06T03:30:23;1.50;44.50
60495;DHT22;46342;49.046;11.920;2023-04-06T03:32:49;1.50;44.60
60495;DHT22;46342;49.046;11.920;2023-04-06T03:35:14;1.40;44.60
60495;DHT22;46342;49.046;11.920;2023-04-06T03:37:40;1.40;44.60
60495;DHT22;46342;49.046;11.920;2023-04-06T03:40:06;1.40;44.70
60495;DHT22;46342;49.046;11.920;2023-04-06T03:42:32;1.40;44.70
60495;DHT22;46342;49.046;11.920;2023-04-06T03:44:58;1.40;44.70
60495;DHT22;46342;49.046;11.920;2023-04-06T03:47:24;1.40;44.90
60495;DHT22;46342;49.046;11.920;2023-04-06T03:49:50;1.30;44.80
60495;DHT22;46342;49.046;11.920;2023-04-06T03:52:15;1.30;44.80
60495;DHT22;46342;49.046;11.920;2023-04-06T03:54:41;1.30;44.80
60495;DHT22;46342;49.046;11.920;2023-04-06T03:57:06;1.30;44.90
60495;DHT22;46342;49.046;11.920;2023-04-06T03:59:32;1.30;44.90
60495;DHT22;46342;49.046;11.920;2023-04-06T04:01:58;1.30;44.90
60495;DHT22;46342;49.046;11.920;2023-04-06T04:04:23;1.20;44.80
60495;DHT22;46342;49.046;11.920;2023-04-06T04:06:49;1.20;44.90
60495;DHT22;46342;49.046;11.920;2023-04-06T04:09:14;1.20;45.00
60495;DHT22;46342;49.046;11.920;2023-04-06T04:11:40;1.20;45.00
60495;DHT22;46342;49.046;11.920;2023-04-06T04:14:05;1.10;44.90
60495;DHT22;46342;49.046;11.920;2023-04-06T04:16:31;1.10;45.00
60495;DHT22;46342;49.046;11.920;2023-04-06T04:18:56;1.10;45.00
60495;DHT22;46342;49.046;11.920;2023-04-06T04:21:24;1.10;45.00
60495;DHT22;46342;49.046;11.920;2023-04-06T04:23:51;1.10;45.10
60495;DHT22;46342;49.046;11.920;2023-04-06T04:26:18;1.00;45.00
60495;DHT22;46342;49.046;11.920;2023-04-06T04:28:43;1.00;45.00
60495;DHT22;46342;49.046;11.920;2023-04-06T04:31:09;1.00;45.10
60495;DHT22;46342;49.046;11.920;2023-04-06T04:33:34;1.00;45.10
60495;DHT22;46342;49.046;11.920;2023-04-06T04:36:00;1.00;45.20
60495;DHT22;46342;49.046;11.920;2023-04-06T04:38:25;1.00;45.30
60495;DHT22;46342;49.046;11.920;2023-04-06T04:40:51;0.90;45.30
60495;DHT22;46342;49.046;11.920;2023-04-06T04:43:16;0.90;45.30
60495;DHT22;46342;49.046;11.920;2023-04-06T04:45:42;0.90;45.30
60495;DHT22;46342;49.046;11.920;2023-04-06T04:48:07;0.90;45.40
60495;DHT22;46342;49.046;11.920;2023-04-06T04:50:34;0.80;45.90
60495;DHT22;46342;49.046;11.920;2023-04-06T04:52:59;0.90;45.50
60495;DHT22;46342;49.046;11.920;2023-04-06T04:55:25;0.90;45.60
60495;DHT22;46342;49.046;11.920;2023-04-06T04:57:51;0.80;45.60
60495;DHT22;46342;49.046;11.920;2023-04-06T05:00:17;0.80;45.60
60495;DHT22;46342;49.046;11.920;2023-04-06T05:02:42;0.80;45.70
60495;DHT22;46342;49.046;11.920;2023-04-06T05:05:08;0.80;45.80
60495;DHT22;46342;49.046;11.920;2023-04-06T05:07:34;0.80;45.80
60495;DHT22;46342;49.046;11.920;2023-04-06T05:10:00;0.80;45.70
60495;DHT22;46342;49.046;11.920;2023-04-06T05:12:26;0.80;45.80
60495;DHT22;46342;49.046;11.920;2023-04-06T05:14:53;0.80;45.80
60495;DHT22;46342;49.046;11.920;2023-04-06T05:17:19;0.80;45.80
60495;DHT22;46342;49.046;11.920;2023-04-06T05:19:44;0.80;45.80
60495;DHT22;46342;49.046;11.920;2023-04-06T05:22:10;0.80;45.80
60495;DHT22;46342;49.046;11.920;2023-04-06T05:24:36;0.80;45.80
60495;DHT22;46342;49.046;11.920;2023-04-06T05:27:02;0.70;45.70
60495;DHT22;46342;49.046;11.920;2023-04-06T05:29:27;0.80;45.90
60495;DHT22;46342;49.046;11.920;2023-04-06T05:31:54;0.70;45.90
60495;DHT22;46342;49.046;11.920;2023-04-06T05:34:19;0.70;45.90
60495;DHT22;46342;49.046;11.920;2023-04-06T05:36:45;0.70;46.00
60495;DHT22;46342;49.046;11.920;2023-04-06T05:39:11;0.70;46.00
60495;DHT22;46342;49.046;11.920;2023-04-06T05:41:37;0.70;46.10
60495;DHT22;46342;49.046;11.920;2023-04-06T05:44:03;0.70;46.10
60495;DHT22;46342;49.046;11.920;2023-04-06T05:46:28;0.80;46.30
60495;DHT22;46342;49.046;11.920;2023-04-06T05:48:54;0.80;46.40
60495;DHT22;46342;49.046;11.920;2023-04-06T05:51:20;0.80;46.40
60495;DHT22;46342;49.046;11.920;2023-04-06T05:53:46;0.90;46.60
60495;DHT22;46342;49.046;11.920;2023-04-06T05:56:11;0.90;46.60
60495;DHT22;46342;49.046;11.920;2023-04-06T05:58:37;0.90;46.60
60495;DHT22;46342;49.046;11.920;2023-04-06T06:01:03;0.90;46.80
60495;DHT22;46342;49.046;11.920;2023-04-06T06:03:30;1.00;46.80
60495;DHT22;46342;49.046;11.920;2023-04-06T06:06:03;1.00;47.40
60495;DHT22;46342;49.046;11.920;2023-04-06T06:08:29;1.10;47.20
60495;DHT22;46342;49.046;11.920;2023-04-06T06:10:55;1.10;47.00
60495;DHT22;46342;49.046;11.920;2023-04-06T06:13:22;1.20;47.10
60495;DHT22;46342;49.046;11.920;2023-04-06T06:15:49;1.20;47.10
60495;DHT22;46342;49.046;11.920;2023-04-06T06:18:14;1.30;47.30
60495;DHT22;46342;49.046;11.920;2023-04-06T06:20:40;1.40;47.30
60495;DHT22;46342;49.046;11.920;2023-04-06T06:23:06;1.40;47.50
60495;DHT22;46342;49.046;11.920;2023-04-06T06:25:32;1.50;47.50
60495;DHT22;46342;49.046;11.920;2023-04-06T06:27:58;1.60;47.50
60495;DHT22;46342;49.046;11.920;2023-04-06T06:30:24;1.60;47.50
60495;DHT22;46342;49.046;11.920;2023-04-06T06:32:51;1.70;47.60
60495;DHT22;46342;49.046;11.920;2023-04-06T06:35:16;1.80;47.70
60495;DHT22;46342;49.046;11.920;2023-04-06T06:37:42;1.80;47.60
60495;DHT22;46342;49.046;11.920;2023-04-06T06:40:09;1.90;47.70
60495;DHT22;46342;49.046;11.920;2023-04-06T06:42:35;2.00;47.70
60495;DHT22;46342;49.046;11.920;2023-04-06T06:45:01;2.00;47.70
60495;DHT22;46342;49.046;11.920;2023-04-06T06:47:26;2.10;47.70
60495;DHT22;46342;49.046;11.920;2023-04-06T06:49:52;2.20;47.70
60495;DHT22;46342;49.046;11.920;2023-04-06T06:52:18;2.30;47.80
60495;DHT22;46342;49.046;11.920;2023-04-06T06:54:44;2.30;47.70
60495;DHT22;46342;49.046;11.920;2023-04-06T06:57:10;2.40;47.80
60495;DHT22;46342;49.046;11.920;2023-04-06T06:59:35;2.50;47.80
60495;DHT22;46342;49.046;11.920;2023-04-06T07:02:01;2.50;47.90
60495;DHT22;46342;49.046;11.920;2023-04-06T07:04:26;2.60;47.90
60495;DHT22;46342;49.046;11.920;2023-04-06T07:06:52;2.70;48.10
60495;DHT22;46342;49.046;11.920;2023-04-06T07:09:18;2.70;48.00
60495;DHT22;46342;49.046;11.920;2023-04-06T07:11:44;2.80;48.00
60495;DHT22;46342;49.046;11.920;2023-04-06T07:14:09;2.90;48.00
60495;DHT22;46342;49.046;11.920;2023-04-06T07:16:36;2.90;48.10
60495;DHT22;46342;49.046;11.920;2023-04-06T07:19:02;3.00;48.10
60495;DHT22;46342;49.046;11.920;2023-04-06T07:21:28;3.10;48.10
60495;DHT22;46342;49.046;11.920;2023-04-06T07:23:53;3.20;48.30
60495;DHT22;46342;49.046;11.920;2023-04-06T07:26:19;3.30;48.50
60495;DHT22;46342;49.046;11.920;2023-04-06T07:28:44;3.50;48.60
60495;DHT22;46342;49.046;11.920;2023-04-06T07:31:10;3.60;48.60
60495;DHT22;46342;49.046;11.920;2023-04-06T07:33:35;3.70;48.60
60495;DHT22;46342;49.046;11.920;2023-04-06T07:36:01;3.80;48.60
60495;DHT22;46342;49.046;11.920;2023-04-06T07:38:26;4.00;48.60
60495;DHT22;46342;49.046;11.920;2023-04-06T07:40:52;4.10;48.70
60495;DHT22;46342;49.046;11.920;2023-04-06T07:43:17;4.30;48.60
60495;DHT22;46342;49.046;11.920;2023-04-06T07:45:43;4.40;48.60
60495;DHT22;46342;49.046;11.920;2023-04-06T07:48:09;4.60;48.70
60495;DHT22;46342;49.046;11.920;2023-04-06T07:50:35;4.80;48.90
60495;DHT22;46342;49.046;11.920;2023-04-06T07:53:01;4.90;48.80
60495;DHT22;46342;49.046;11.920;2023-04-06T07:55:26;5.10;48.70
60495;DHT22;46342;49.046;11.920;2023-04-06T07:57:52;5.30;48.70
60495;DHT22;46342;49.046;11.920;2023-04-06T08:00:18;5.40;48.60
60495;DHT22;46342;49.046;11.920;2023-04-06T08:02:43;5.60;48.50
60495;DHT22;46342;49.046;11.920;2023-04-06T08:05:09;5.70;48.50
60495;DHT22;46342;49.046;11.920;2023-04-06T08:07:34;5.90;48.60
60495;DHT22;46342;49.046;11.920;2023-04-06T08:10:01;6.10;48.50
60495;DHT22;46342;49.046;11.920;2023-04-06T08:12:27;6.20;48.40
60495;DHT22;46342;49.046;11.920;2023-04-06T08:14:52;6.40;48.40
60495;DHT22;46342;49.046;11.920;2023-04-06T08:17:18;6.60;48.40
60495;DHT22;46342;49.046;11.920;2023-04-06T08:19:44;6.70;48.30
60495;DHT22;46342;49.046;11.920;2023-04-06T08:22:10;6.90;48.30
60495;DHT22;46342;49.046;11.920;2023-04-06T08:24:36;7.10;48.20
60495;DHT22;46342;49.046;11.920;2023-04-06T08:27:01;7.30;48.10
60495;DHT22;46342;49.046;11.920;2023-04-06T08:29:27;7.50;48.10
60495;DHT22;46342;49.046;11.920;2023-04-06T08:31:52;7.60;48.00
60495;DHT22;46342;49.046;11.920;2023-04-06T08:34:18;7.80;48.00
60495;DHT22;46342;49.046;11.920;2023-04-06T08:36:43;7.90;47.80
60495;DHT22;46342;49.046;11.920;2023-04-06T08:39:10;8.10;47.70
60495;DHT22;46342;49.046;11.920;2023-04-06T08:41:36;8.30;47.70
60495;DHT22;46342;49.046;11.920;2023-04-06T08:44:02;8.50;47.60
60495;DHT22;46342;49.046;11.920;2023-04-06T08:46:31;8.70;47.30
60495;DHT22;46342;49.046;11.920;2023-04-06T08:49:02;8.80;47.20
60495;DHT22;46342;49.046;11.920;2023-04-06T08:51:29;9.00;47.80
60495;DHT22;46342;49.046;11.920;2023-04-06T08:53:57;9.20;47.20
60495;DHT22;46342;49.046;11.920;2023-04-06T08:56:24;9.40;46.90
60495;DHT22;46342;49.046;11.920;2023-04-06T08:58:51;9.60;47.30
60495;DHT22;46342;49.046;11.920;2023-04-06T09:01:21;9.70;46.10
60495;DHT22;46342;49.046;11.920;2023-04-06T09:03:49;9.90;45.80
60495;DHT22;46342;49.046;11.920;2023-04-06T09:06:15;10.00;45.00
60495;DHT22;46342;49.046;11.920;2023-04-06T09:08:42;10.20;44.30
60495;DHT22;46342;49.046;11.920;2023-04-06T09:11:08;10.30;44.90
60495;DHT22;46342;49.046;11.920;2023-04-06T09:13:54;10.50;45.00
60495;DHT22;46342;49.046;11.920;2023-04-06T09:16:21;10.60;44.10
60495;DHT22;46342;49.046;11.920;2023-04-06T09:18:47;10.80;44.90
60495;DHT22;46342;49.046;11.920;2023-04-06T09:21:15;10.90;45.00
60495;DHT22;46342;49.046;11.920;2023-04-06T09:23:41;11.10;44.90
60495;DHT22;46342;49.046;11.920;2023-04-06T09:26:07;11.30;44.70
60495;DHT22;46342;49.046;11.920;2023-04-06T09:28:55;11.40;44.50
60495;DHT22;46342;49.046;11.920;2023-04-06T09:31:21;11.60;43.40
60495;DHT22;46342;49.046;11.920;2023-04-06T09:33:48;11.70;43.60
60495;DHT22;46342;49.046;11.920;2023-04-06T09:36:14;11.90;44.00
60495;DHT22;46342;49.046;11.920;2023-04-06T09:38:58;12.00;44.60
60495;DHT22;46342;49.046;11.920;2023-04-06T09:41:26;12.10;42.80
60495;DHT22;46342;49.046;11.920;2023-04-06T09:44:01;12.20;43.60
60495;DHT22;46342;49.046;11.920;2023-04-06T09:46:27;12.30;43.50
60495;DHT22;46342;49.046;11.920;2023-04-06T09:48:56;12.50;43.50
60495;DHT22;46342;49.046;11.920;2023-04-06T09:51:22;12.60;43.30
60495;DHT22;46342;49.046;11.920;2023-04-06T09:53:52;12.70;43.20
60495;DHT22;46342;49.046;11.920;2023-04-06T09:56:21;12.90;42.70
60495;DHT22;46342;49.046;11.920;2023-04-06T09:58:49;13.00;42.60
60495;DHT22;46342;49.046;11.920;2023-04-06T10:01:20;13.10;42.80
60495;DHT22;46342;49.046;11.920;2023-04-06T10:06:32;13.30;42.80
60495;DHT22;46342;49.046;11.920;2023-04-06T10:09:02;13.50;41.70
60495;DHT22;46342;49.046;11.920;2023-04-06T10:11:28;13.60;42.40
60495;DHT22;46342;49.046;11.920;2023-04-06T10:13:55;13.70;40.70
60495;DHT22;46342;49.046;11.920;2023-04-06T10:16:21;13.80;41.90
60495;DHT22;46342;49.046;11.920;2023-04-06T10:19:04;13.90;41.80
60495;DHT22;46342;49.046;11.920;2023-04-06T10:21:33;14.00;41.20
60495;DHT22;46342;49.046;11.920;2023-04-06T10:24:01;14.10;41.60
60495;DHT22;46342;49.046;11.920;2023-04-06T10:26:27;14.20;41.60
60495;DHT22;46342;49.046;11.920;2023-04-06T10:28:54;14.30;41.50
60495;DHT22;46342;49.046;11.920;2023-04-06T10:31:27;14.30;41.50
60495;DHT22;46342;49.046;11.920;2023-04-06T10:34:00;14.40;40.80
60495;DHT22;46342;49.046;11.920;2023-04-06T10:36:33;14.40;40.40
60495;DHT22;46342;49.046;11.920;2023-04-06T10:39:01;14.40;40.40
60495;DHT22;46342;49.046;11.920;2023-04-06T10:41:44;14.50;39.80
60495;DHT22;46342;49.046;11.920;2023-04-06T10:44:21;14.50;39.40
60495;DHT22;46342;49.046;11.920;2023-04-06T10:46:55;14.50;39.20
60495;DHT22;46342;49.046;11.920;2023-04-06T10:49:21;14.50;39.40
60495;DHT22;46342;49.046;11.920;2023-04-06T10:51:54;14.50;40.30
60495;DHT22;46342;49.046;11.920;2023-04-06T10:54:25;14.60;40.10
60495;DHT22;46342;49.046;11.920;2023-04-06T10:56:52;14.70;40.00
60495;DHT22;46342;49.046;11.920;2023-04-06T10:59:21;14.80;40.40
60495;DHT22;46342;49.046;11.920;2023-04-06T11:01:47;14.80;40.00
60495;DHT22;46342;49.046;11.920;2023-04-06T11:04:16;15.00;40.50
60495;DHT22;46342;49.046;11.920;2023-04-06T11:06:46;15.00;40.10
60495;DHT22;46342;49.046;11.920;2023-04-06T11:09:26;15.10;39.60
60495;DHT22;46342;49.046;11.920;2023-04-06T11:11:52;15.20;38.90
60495;DHT22;46342;49.046;11.920;2023-04-06T11:14:18;15.20;40.10
60495;DHT22;46342;49.046;11.920;2023-04-06T11:16:46;15.20;40.00
60495;DHT22;46342;49.046;11.920;2023-04-06T11:19:13;15.30;39.20
60495;DHT22;46342;49.046;11.920;2023-04-06T11:21:40;15.30;39.50
60495;DHT22;46342;49.046;11.920;2023-04-06T11:24:14;15.40;39.30
60495;DHT22;46342;49.046;11.920;2023-04-06T11:26:42;15.40;38.20
60495;DHT22;46342;49.046;11.920;2023-04-06T11:29:09;15.50;39.30
60495;DHT22;46342;49.046;11.920;2023-04-06T11:31:42;15.50;39.50
60495;DHT22;46342;49.046;11.920;2023-04-06T11:34:17;15.60;38.40
60495;DHT22;46342;49.046;11.920;2023-04-06T11:36:44;15.60;38.50
60495;DHT22;46342;49.046;11.920;2023-04-06T11:39:11;15.60;38.80
60495;DHT22;46342;49.046;11.920;2023-04-06T11:41:37;15.70;38.80
60495;DHT22;46342;49.046;11.920;2023-04-06T11:44:03;15.70;38.80
60495;DHT22;46342;49.046;11.920;2023-04-06T11:46:28;15.80;38.20
60495;DHT22;46342;49.046;11.920;2023-04-06T11:48:58;15.80;38.10
60495;DHT22;46342;49.046;11.920;2023-04-06T11:51:25;15.80;37.30
60495;DHT22;46342;49.046;11.920;2023-04-06T11:53:52;15.80;37.50
60495;DHT22;46342;49.046;11.920;2023-04-06T11:56:45;15.80;37.30
60495;DHT22;46342;49.046;11.920;2023-04-06T11:59:11;15.90;36.00
60495;DHT22;46342;49.046;11.920;2023-04-06T12:01:44;15.80;37.30
60495;DHT22;46342;49.046;11.920;2023-04-06T12:04:10;15.80;36.10
60495;DHT22;46342;49.046;11.920;2023-04-06T12:06:36;15.80;37.40
60495;DHT22;46342;49.046;11.920;2023-04-06T12:09:01;15.80;37.60
60495;DHT22;46342;49.046;11.920;2023-04-06T12:11:27;15.80;37.50
60495;DHT22;46342;49.046;11.920;2023-04-06T12:13:53;15.90;37.60
60495;DHT22;46342;49.046;11.920;2023-04-06T12:16:19;15.90;37.80
60495;DHT22;46342;49.046;11.920;2023-04-06T12:18:44;16.00;37.90
60495;DHT22;46342;49.046;11.920;2023-04-06T12:21:10;16.10;38.00
60495;DHT22;46342;49.046;11.920;2023-04-06T12:23:36;16.20;37.80
60495;DHT22;46342;49.046;11.920;2023-04-06T12:26:02;16.30;38.50
60495;DHT22;46342;49.046;11.920;2023-04-06T12:28:28;16.30;37.30
60495;DHT22;46342;49.046;11.920;2023-04-06T12:30:54;16.40;37.40
60495;DHT22;46342;49.046;11.920;2023-04-06T12:33:20;16.50;37.00
60495;DHT22;46342;49.046;11.920;2023-04-06T12:35:46;16.50;37.10
60495;DHT22;46342;49.046;11.920;2023-04-06T12:38:12;16.60;37.90
60495;DHT22;46342;49.046;11.920;2023-04-06T12:40:38;16.60;36.60
60495;DHT22;46342;49.046;11.920;2023-04-06T12:43:04;16.60;37.10
60495;DHT22;46342;49.046;11.920;2023-04-06T12:45:32;16.70;36.60
60495;DHT22;46342;49.046;11.920;2023-04-06T12:47:58;16.70;35.70
60495;DHT22;46342;49.046;11.920;2023-04-06T12:50:23;16.70;36.20
60495;DHT22;46342;49.046;11.920;2023-04-06T12:52:49;16.70;35.80
60495;DHT22;46342;49.046;11.920;2023-04-06T12:55:15;16.60;35.40
60495;DHT22;46342;49.046;11.920;2023-04-06T12:57:40;16.50;35.40
60495;DHT22;46342;49.046;11.920;2023-04-06T13:00:07;16.40;35.50
60495;DHT22;46342;49.046;11.920;2023-04-06T13:02:33;16.40;35.50
60495;DHT22;46342;49.046;11.920;2023-04-06T13:04:59;16.30;35.50
60495;DHT22;46342;49.046;11.920;2023-04-06T13:07:25;16.20;35.50
60495;DHT22;46342;49.046;11.920;2023-04-06T13:09:51;16.20;35.50
60495;DHT22;46342;49.046;11.920;2023-04-06T13:12:17;16.20;35.30
60495;DHT22;46342;49.046;11.920;2023-04-06T13:14:43;16.10;35.40
60495;DHT22;46342;49.046;11.920;2023-04-06T13:17:09;16.10;35.10
60495;DHT22;46342;49.046;11.920;2023-04-06T13:19:35;16.20;35.20
60495;DHT22;46342;49.046;11.920;2023-04-06T13:22:00;16.20;34.90
60495;DHT22;46342;49.046;11.920;2023-04-06T13:24:26;16.20;35.20
60495;DHT22;46342;49.046;11.920;2023-04-06T13:26:51;16.20;35.40
60495;DHT22;46342;49.046;11.920;2023-04-06T13:29:17;16.30;35.30
60495;DHT22;46342;49.046;11.920;2023-04-06T13:31:42;16.30;35.30
60495;DHT22;46342;49.046;11.920;2023-04-06T13:34:08;16.40;35.60
60495;DHT22;46342;49.046;11.920;2023-04-06T13:36:33;16.40;35.50
60495;DHT22;46342;49.046;11.920;2023-04-06T13:38:59;16.50;35.30
60495;DHT22;46342;49.046;11.920;2023-04-06T13:41:25;16.60;35.50
60495;DHT22;46342;49.046;11.920;2023-04-06T13:43:52;16.70;35.60
60495;DHT22;46342;49.046;11.920;2023-04-06T13:46:17;16.70;35.60
60495;DHT22;46342;49.046;11.920;2023-04-06T13:48:43;16.80;35.60
60495;DHT22;46342;49.046;11.920;2023-04-06T13:51:14;16.90;35.70
60495;DHT22;46342;49.046;11.920;2023-04-06T13:53:40;17.00;35.00
60495;DHT22;46342;49.046;11.920;2023-04-06T13:56:06;17.00;35.40
60495;DHT22;46342;49.046;11.920;2023-04-06T13:58:33;17.10;35.10
60495;DHT22;46342;49.046;11.920;2023-04-06T14:01:06;17.10;35.20
60495;DHT22;46342;49.046;11.920;2023-04-06T14:03:33;17.20;34.10
60495;DHT22;46342;49.046;11.920;2023-04-06T14:05:59;17.20;34.90
60495;DHT22;46342;49.046;11.920;2023-04-06T14:08:24;17.20;34.50
60495;DHT22;46342;49.046;11.920;2023-04-06T14:10:50;17.20;34.90
60495;DHT22;46342;49.046;11.920;2023-04-06T14:13:16;17.20;34.30
60495;DHT22;46342;49.046;11.920;2023-04-06T14:15:42;17.20;34.40
60495;DHT22;46342;49.046;11.920;2023-04-06T14:18:08;17.30;34.50
60495;DHT22;46342;49.046;11.920;2023-04-06T14:20:34;17.30;34.20
60495;DHT22;46342;49.046;11.920;2023-04-06T14:23:03;17.30;34.00
60495;DHT22;46342;49.046;11.920;2023-04-06T14:25:29;17.40;33.80
60495;DHT22;46342;49.046;11.920;2023-04-06T14:27:59;17.30;33.40
60495;DHT22;46342;49.046;11.920;2023-04-06T14:30:26;17.30;33.50
60495;DHT22;46342;49.046;11.920;2023-04-06T14:32:53;17.30;33.40
60495;DHT22;46342;49.046;11.920;2023-04-06T14:35:21;17.30;33.40
60495;DHT22;46342;49.046;11.920;2023-04-06T14:37:47;17.30;33.70
60495;DHT22;46342;49.046;11.920;2023-04-06T14:40:12;17.30;33.70
60495;DHT22;46342;49.046;11.920;2023-04-06T14:42:38;17.30;33.50
60495;DHT22;46342;49.046;11.920;2023-04-06T14:45:04;17.40;33.40
60495;DHT22;46342;49.046;11.920;2023-04-06T14:47:31;17.40;33.30
60495;DHT22;46342;49.046;11.920;2023-04-06T14:49:57;17.40;33.30
60495;DHT22;46342;49.046;11.920;2023-04-06T14:52:23;17.40;33.30
60495;DHT22;46342;49.046;11.920;2023-04-06T14:54:48;17.40;33.10
60495;DHT22;46342;49.046;11.920;2023-04-06T14:57:14;17.40;33.40
60495;DHT22;46342;49.046;11.920;2023-04-06T14:59:39;17.40;32.90
60495;DHT22;46342;49.046;11.920;2023-04-06T15:02:05;17.40;32.80
60495;DHT22;46342;49.046;11.920;2023-04-06T15:04:30;17.30;32.60
60495;DHT22;46342;49.046;11.920;2023-04-06T15:06:58;17.30;32.60
60495;DHT22;46342;49.046;11.920;2023-04-06T15:09:24;17.30;32.90
60495;DHT22;46342;49.046;11.920;2023-04-06T15:11:50;17.30;33.00
60495;DHT22;46342;49.046;11.920;2023-04-06T15:14:16;17.30;33.00
60495;DHT22;46342;49.046;11.920;2023-04-06T15:16:41;17.40;33.10
60495;DHT22;46342;49.046;11.920;2023-04-06T15:19:07;17.40;33.10
60495;DHT22;46342;49.046;11.920;2023-04-06T15:21:33;17.40;33.00
60495;DHT22;46342;49.046;11.920;2023-04-06T15:23:59;17.40;32.80